Time;durP1;ratioP1;P1;durP2;ratioP2;P2;SDS_P1;SDS_P2;PMS_P1;PMS_P2;Temp;Humidity;BMP_temperature;BMP_pressure;BME280_temperature;BME280_humidity;BME280_pressure;Samples;Min_cycle;Max_cycle;Signal;HPM_P1;HPM_P2
2021/07/02 00:01:13;;;;;;;7.35;6.50;;;;;;;21.94;78.97;99495.28;1726610;81;20983;-85
2021/07/02 00:03:39;;;;;;;9.00;6.62;;;;;;;21.91;79.01;99495.31;1738490;81;21032;-83
2021/07/02 00:06:06;;;;;;;7.42;6.78;;;;;;;21.91;79.13;99491.80;1743301;81;21497;-82
2021/07/02 00:08:33;;;;;;;7.03;6.42;;;;;;;21.92;78.92;99479.28;1749163;81;21021;-82
2021/07/02 00:11:00;;;;;;;7.37;6.50;;;;;;;21.92;79.00;99482.00;1756332;81;21075;-82
2021/07/02 00:13:26;;;;;;;5.80;5.25;;;;;;;21.93;78.97;99480.92;1775661;79;20994;-81
2021/07/02 00:15:53;;;;;;;7.28;6.30;;;;;;;21.92;78.57;99474.42;1780693;79;21041;-81
2021/07/02 00:18:19;;;;;;;6.47;5.87;;;;;;;21.95;77.98;99467.87;1772326;79;20994;-82
2021/07/02 00:20:45;;;;;;;7.62;5.90;;;;;;;21.95;77.98;99467.87;1781431;79;21003;-80
2021/07/02 00:23:11;;;;;;;7.08;6.30;;;;;;;22.03;77.45;99468.36;1748729;80;21483;-84
2021/07/02 00:25:39;;;;;;;4.53;4.15;;;;;;;22.10;77.13;99471.55;1744191;82;21133;-82
2021/07/02 00:28:07;;;;;;;7.15;5.92;;;;;;;22.13;77.22;99470.97;1733416;82;21046;-83
2021/07/02 00:30:36;;;;;;;6.87;6.28;;;;;;;22.21;77.20;99464.94;1740783;82;22160;-83
2021/07/02 00:33:03;;;;;;;7.08;6.47;;;;;;;22.22;77.15;99461.66;1711067;82;21553;-83
2021/07/02 00:35:29;;;;;;;8.00;7.10;;;;;;;22.20;77.03;99463.86;1740930;82;21496;-83
2021/07/02 00:37:55;;;;;;;6.67;6.10;;;;;;;22.16;76.99;99464.42;1741941;82;21035;-82
2021/07/02 00:40:21;;;;;;;7.15;6.55;;;;;;;22.11;77.42;99460.42;1738434;82;21481;-81
2021/07/02 00:42:47;;;;;;;5.72;5.37;;;;;;;22.07;77.49;99464.78;1723888;82;21009;-82
2021/07/02 00:45:15;;;;;;;8.40;6.47;;;;;;;22.09;77.70;99469.92;1726200;82;21014;-81
2021/07/02 00:47:42;;;;;;;5.47;4.97;;;;;;;22.10;77.66;99468.84;1727073;82;21041;-82
2021/07/02 00:50:10;;;;;;;6.62;6.00;;;;;;;22.08;77.93;99473.75;1739936;82;21017;-81
2021/07/02 00:52:38;;;;;;;6.45;5.87;;;;;;;22.05;78.03;99471.59;1730557;81;21125;-81
2021/07/02 00:55:13;;;;;;;6.80;6.10;;;;;;;22.00;78.11;99464.85;1747403;80;21494;-86
2021/07/02 00:57:43;;;;;;;5.37;4.87;;;;;;;21.94;78.25;99462.20;1761026;80;21557;-83
2021/07/02 01:00:16;;;;;;;7.30;6.67;;;;;;;21.88;78.96;99460.61;1761846;80;21491;-83
2021/07/02 01:02:44;;;;;;;7.28;6.53;;;;;;;21.86;79.12;99462.00;1748153;81;21121;-81
2021/07/02 01:05:12;;;;;;;9.23;6.62;;;;;;;21.84;78.88;99462.28;1771287;81;21103;-80
2021/07/02 01:07:41;;;;;;;7.12;6.62;;;;;;;21.81;78.91;99451.98;1771822;80;21014;-82
2021/07/02 01:10:10;;;;;;;7.45;6.70;;;;;;;21.76;79.02;99446.63;1764766;81;21030;-82
2021/07/02 01:12:37;;;;;;;12.98;7.70;;;;;;;21.73;79.08;99450.70;1770717;81;21043;-82
2021/07/02 01:15:23;;;;;;;8.05;6.47;;;;;;;21.68;78.99;99450.76;1770629;80;21013;-81
2021/07/02 01:17:52;;;;;;;8.83;7.03;;;;;;;21.69;78.83;99444.78;1772950;79;21538;-79
2021/07/02 01:20:21;;;;;;;7.12;6.47;;;;;;;21.73;78.76;99434.42;1754665;81;21500;-82
2021/07/02 01:22:49;;;;;;;6.72;6.17;;;;;;;21.73;78.72;99439.05;1775869;79;20921;-81
2021/07/02 01:25:16;;;;;;;6.05;5.58;;;;;;;21.73;78.69;99432.27;1726639;80;20953;-80
2021/07/02 01:27:42;;;;;;;7.45;6.72;;;;;;;21.74;79.03;99432.54;1773479;79;21004;-82
2021/07/02 01:30:12;;;;;;;7.20;6.55;;;;;;;21.74;78.87;99433.90;1762457;80;20973;-82
2021/07/02 01:32:39;;;;;;;8.63;7.78;;;;;;;21.71;78.81;99438.52;1779514;80;21020;-82
2021/07/02 01:35:06;;;;;;;7.35;6.75;;;;;;;21.69;78.53;99435.28;1758694;79;21036;-82
2021/07/02 01:37:34;;;;;;;11.33;9.18;;;;;;;21.68;78.38;99425.52;1765150;81;21012;-82
2021/07/02 01:40:04;;;;;;;10.55;9.13;;;;;;;21.61;78.48;99419.64;1773909;80;20979;-81
2021/07/02 01:42:33;;;;;;;9.23;8.33;;;;;;;21.59;78.34;99422.63;1770682;80;21076;-81
2021/07/02 01:45:00;;;;;;;9.03;7.83;;;;;;;21.63;78.19;99433.72;1770401;80;21063;-81
2021/07/02 01:47:27;;;;;;;8.33;6.45;;;;;;;21.64;78.51;99438.03;1771009;80;21075;-81
2021/07/02 01:49:55;;;;;;;5.00;4.58;;;;;;;21.70;78.60;99437.72;1767110;80;21610;-81
2021/07/02 01:52:23;;;;;;;6.28;5.78;;;;;;;21.84;78.30;99440.58;1770518;80;21025;-83
2021/07/02 01:54:51;;;;;;;6.90;6.33;;;;;;;22.04;77.83;99446.90;1771421;80;21047;-81
2021/07/02 01:57:28;;;;;;;6.97;5.87;;;;;;;22.19;76.57;99444.58;1771121;80;21515;-82
2021/07/02 01:59:56;;;;;;;6.37;5.87;;;;;;;22.13;76.33;99454.16;1768964;81;21554;-82
2021/07/02 02:02:24;;;;;;;7.08;6.42;;;;;;;22.09;77.13;99455.00;1745661;80;20998;-82
2021/07/02 02:04:52;;;;;;;6.00;5.30;;;;;;;22.16;76.95;99456.83;1765183;79;21015;-83
2021/07/02 02:07:19;;;;;;;6.03;5.62;;;;;;;22.33;76.20;99469.44;1769425;79;21500;-82
2021/07/02 02:09:46;;;;;;;5.42;4.92;;;;;;;22.43;75.52;99474.50;1770425;79;21127;-83
2021/07/02 02:12:12;;;;;;;5.33;4.97;;;;;;;22.53;74.93;99470.33;1771480;79;21010;-82
2021/07/02 02:14:43;;;;;;;7.10;6.42;;;;;;;22.60;74.32;99469.41;1767067;79;21015;-82
2021/07/02 02:17:14;;;;;;;7.37;6.67;;;;;;;22.58;74.24;99473.53;1759831;79;20998;-82
2021/07/02 02:19:41;;;;;;;7.30;6.60;;;;;;;22.50;74.32;99479.05;1756680;79;21010;-83
2021/07/02 02:22:07;;;;;;;5.35;4.95;;;;;;;22.46;74.74;99483.44;1770839;79;21528;-81
2021/07/02 02:24:35;;;;;;;12.18;5.85;;;;;;;22.55;74.46;99486.59;1775081;81;21046;-82
2021/07/02 02:27:02;;;;;;;6.35;5.83;;;;;;;22.67;74.11;99488.89;1775042;80;21038;-81
2021/07/02 02:29:31;;;;;;;7.47;6.78;;;;;;;22.78;73.94;99486.07;1768216;79;21019;-84
2021/07/02 02:31:57;;;;;;;5.90;5.40;;;;;;;22.88;73.75;99481.86;1774848;80;21113;-81
2021/07/02 02:34:26;;;;;;;6.75;6.25;;;;;;;22.95;73.98;99486.39;1760064;81;21523;-82
2021/07/02 02:36:51;;;;;;;10.65;8.40;;;;;;;23.11;73.68;99491.09;1771635;81;21082;-82
2021/07/02 02:39:18;;;;;;;6.62;6.17;;;;;;;23.37;73.16;99487.48;1767820;80;20979;-82
2021/07/02 02:41:44;;;;;;;5.17;4.65;;;;;;;23.63;72.44;99488.46;1770845;81;21068;-83
2021/07/02 02:44:12;;;;;;;8.65;7.62;;;;;;;23.90;70.68;99483.16;1767332;80;21113;-82
2021/07/02 02:46:40;;;;;;;7.85;7.10;;;;;;;24.18;70.35;99478.33;1766638;80;21559;-84
2021/07/02 02:49:08;;;;;;;7.35;6.58;;;;;;;24.22;70.19;99475.25;1763951;81;21338;-82
2021/07/02 02:51:37;;;;;;;10.55;6.75;;;;;;;24.20;70.31;99476.91;1765136;80;21119;-85
2021/07/02 02:54:04;;;;;;;10.85;6.70;;;;;;;24.35;70.07;99473.09;1768413;81;21004;-84
2021/07/02 02:56:30;;;;;;;8.40;5.92;;;;;;;24.57;69.29;99475.73;1770110;80;20998;-82
2021/07/02 02:58:59;;;;;;;7.62;5.58;;;;;;;24.72;69.28;99479.51;1761839;80;21598;-83
2021/07/02 03:01:26;;;;;;;10.58;5.70;;;;;;;24.94;68.53;99481.52;1759937;80;21002;-84
2021/07/02 03:03:53;;;;;;;7.00;4.50;;;;;;;25.26;67.59;99487.95;1766154;80;20994;-83
2021/07/02 03:06:19;;;;;;;7.15;5.28;;;;;;;25.66;65.70;99492.20;1762505;80;21014;-83
2021/07/02 03:08:47;;;;;;;5.78;5.12;;;;;;;26.11;62.99;99500.41;1766843;80;20986;-83
2021/07/02 03:11:16;;;;;;;6.87;5.15;;;;;;;26.43;62.50;99495.75;1758186;80;21050;-83
2021/07/02 03:13:42;;;;;;;6.42;4.53;;;;;;;26.54;61.94;99502.55;1802701;79;20948;-84
2021/07/02 03:16:09;;;;;;;8.80;5.78;;;;;;;26.59;61.21;99503.78;1788684;79;20970;-84
2021/07/02 03:18:38;;;;;;;15.20;6.08;;;;;;;26.72;61.25;99501.27;1793366;79;21435;-84
2021/07/02 03:21:04;;;;;;;9.50;5.35;;;;;;;26.85;59.83;99503.65;1783118;79;21033;-85
2021/07/02 03:23:32;;;;;;;6.37;5.22;;;;;;;26.80;59.41;99505.95;1796765;79;20983;-85
2021/07/02 03:25:59;;;;;;;13.30;6.47;;;;;;;26.60;59.94;99495.05;1798009;79;20959;-80
2021/07/02 03:28:25;;;;;;;7.78;5.50;;;;;;;26.54;60.39;99497.09;1788934;76;20999;-86
2021/07/02 03:30:53;;;;;;;7.45;5.70;;;;;;;26.57;60.41;99501.91;1799191;76;20955;-76
2021/07/02 03:33:19;;;;;;;10.63;6.10;;;;;;;26.51;60.06;99501.80;1783323;77;21030;-81
2021/07/02 03:35:47;;;;;;;10.58;6.92;;;;;;;26.26;59.98;99514.77;1708331;79;21028;-80
2021/07/02 03:38:14;;;;;;;9.18;6.47;;;;;;;26.08;60.53;99510.58;1711329;82;21040;-84
2021/07/02 03:40:41;;;;;;;15.35;7.42;;;;;;;25.97;61.55;99510.02;1711721;82;21553;-86
2021/07/02 03:43:07;;;;;;;11.12;6.92;;;;;;;26.06;61.25;99507.36;1715056;82;21026;-83
2021/07/02 03:45:34;;;;;;;6.78;6.25;;;;;;;26.18;60.31;99506.77;1712295;82;22027;-83
2021/07/02 03:48:05;;;;;;;14.53;7.67;;;;;;;26.20;60.04;99509.46;1704826;82;21508;-84
2021/07/02 03:50:33;;;;;;;8.88;6.85;;;;;;;26.16;60.42;99504.92;1675436;83;21082;-82
2021/07/02 03:52:59;;;;;;;9.93;7.58;;;;;;;26.05;60.35;99500.30;1679726;83;21666;-82
2021/07/02 03:55:31;;;;;;;10.60;7.37;;;;;;;25.95;60.33;99501.34;1705079;82;21065;-83
2021/07/02 03:57:55;;;;;;;9.88;7.90;;;;;;;25.94;59.90;99505.77;1735469;80;21066;-83
2021/07/02 04:00:21;;;;;;;10.93;7.33;;;;;;;25.92;59.73;99509.34;1744233;80;21618;-83
2021/07/02 04:02:50;;;;;;;8.80;7.95;;;;;;;25.79;59.28;99508.28;1745113;81;21059;-83
2021/07/02 04:05:16;;;;;;;9.13;6.92;;;;;;;25.45;60.06;99507.69;1743933;82;21082;-83
2021/07/02 04:07:42;;;;;;;8.85;6.67;;;;;;;25.36;61.13;99508.16;1733178;82;21565;-83
2021/07/02 04:10:09;;;;;;;7.87;7.12;;;;;;;25.54;60.85;99505.05;1739339;81;21574;-84
2021/07/02 04:12:35;;;;;;;9.58;6.37;;;;;;;25.79;59.67;99507.72;1730926;80;21164;-84
2021/07/02 04:15:09;;;;;;;6.47;5.92;;;;;;;25.97;59.04;99511.39;1716312;82;21023;-86
2021/07/02 04:17:39;;;;;;;7.53;6.55;;;;;;;26.00;59.33;99517.60;1688488;83;21032;-84
2021/07/02 04:20:10;;;;;;;6.95;6.42;;;;;;;26.03;59.21;99516.98;1708476;82;21643;-84
2021/07/02 04:22:38;;;;;;;7.58;6.67;;;;;;;26.07;59.62;99517.17;1698683;82;21070;-84
2021/07/02 04:25:08;;;;;;;10.32;6.97;;;;;;;26.04;59.23;99516.42;1698081;83;21088;-84
2021/07/02 04:27:34;;;;;;;8.85;5.90;;;;;;;25.80;59.84;99510.67;1700180;84;20973;-83
2021/07/02 04:30:02;;;;;;;7.90;7.15;;;;;;;25.62;59.89;99512.48;1694070;84;21065;-84
2021/07/02 04:32:28;;;;;;;7.72;6.85;;;;;;;25.55;60.09;99514.83;1702558;83;21287;-83
2021/07/02 04:34:54;;;;;;;7.53;6.92;;;;;;;25.67;59.97;99516.20;1702132;83;20977;-84
2021/07/02 04:37:20;;;;;;;7.00;6.42;;;;;;;25.84;59.96;99511.70;1705283;83;21000;-83
2021/07/02 04:39:47;;;;;;;6.33;5.97;;;;;;;26.14;58.65;99505.23;1655214;84;20983;-83
2021/07/02 04:42:12;;;;;;;7.60;6.97;;;;;;;26.23;58.69;99504.72;1663050;84;21013;-83
2021/07/02 04:44:39;;;;;;;7.50;6.83;;;;;;;26.13;58.36;99507.73;1673327;82;21108;-84
2021/07/02 04:47:07;;;;;;;7.85;6.60;;;;;;;26.12;58.19;99508.83;1730792;80;21511;-84
2021/07/02 04:49:35;;;;;;;5.55;5.20;;;;;;;26.24;58.46;99501.45;1755594;80;21107;-84
2021/07/02 04:52:02;;;;;;;8.33;6.42;;;;;;;26.51;57.69;99503.17;1750556;80;21102;-83
2021/07/02 04:54:28;;;;;;;6.15;5.55;;;;;;;26.87;56.00;99503.56;1750638;80;21019;-84
2021/07/02 04:56:56;;;;;;;5.37;4.97;;;;;;;27.06;55.83;99501.12;1749706;80;21535;-85
2021/07/02 04:59:28;;;;;;;8.15;6.62;;;;;;;26.92;55.04;99495.22;1732231;80;21106;-85
2021/07/02 05:01:50;;;;;;;5.10;4.70;;;;;;;26.86;55.63;99497.87;1738503;80;20973;-84
2021/07/02 05:04:16;;;;;;;5.20;4.90;;;;;;;26.78;55.67;99502.73;1752686;82;20995;-87
2021/07/02 05:07:47;;;;;;;5.30;4.83;;;;;;;26.70;55.61;99501.58;1886880;75;23317;-85
2021/07/02 05:10:15;;;;;;;6.50;5.67;;;;;;;26.53;56.16;99500.93;1867792;75;21022;-85
2021/07/02 05:12:41;;;;;;;5.95;5.45;;;;;;;26.56;55.69;99498.94;1816295;77;20995;-86
2021/07/02 05:15:09;;;;;;;9.25;5.85;;;;;;;26.63;56.37;99497.70;1796058;79;21504;-86
2021/07/02 05:17:36;;;;;;;5.83;5.28;;;;;;;26.54;55.97;99503.92;1790960;79;21512;-84
2021/07/02 05:20:04;;;;;;;5.83;5.33;;;;;;;26.54;56.22;99509.38;1786562;79;21543;-85
2021/07/02 05:22:31;;;;;;;5.37;4.95;;;;;;;26.67;55.76;99505.51;1774226;78;20964;-84
2021/07/02 05:24:58;;;;;;;5.60;4.70;;;;;;;26.74;55.16;99512.69;1815549;77;21477;-84
2021/07/02 05:27:27;;;;;;;8.13;5.80;;;;;;;26.83;55.75;99512.73;1818418;77;21596;-86
2021/07/02 05:29:53;;;;;;;6.62;5.85;;;;;;;27.00;55.01;99507.30;1812727;78;21006;-87
2021/07/02 05:32:20;;;;;;;5.60;5.08;;;;;;;27.13;54.28;99516.50;1814974;77;20977;-84
2021/07/02 05:34:46;;;;;;;8.15;4.85;;;;;;;27.16;54.48;99493.97;1799424;79;21113;-90
2021/07/02 05:37:14;;;;;;;6.28;5.53;;;;;;;27.26;54.42;99512.85;1787977;79;21031;-87
2021/07/02 05:39:40;;;;;;;5.55;4.20;;;;;;;27.16;53.99;99514.48;1786083;79;21077;-85
2021/07/02 05:42:06;;;;;;;6.03;5.40;;;;;;;27.22;54.30;99511.86;1785931;79;20971;-85
2021/07/02 05:44:32;;;;;;;4.90;4.53;;;;;;;27.40;52.72;99517.37;1785574;76;20974;-81
2021/07/02 05:46:59;;;;;;;6.55;4.30;;;;;;;27.30;53.84;99522.59;1796723;76;21112;-86
2021/07/02 05:49:25;;;;;;;5.80;5.30;;;;;;;27.32;52.95;99523.88;1784209;79;21028;-88
2021/07/02 05:51:51;;;;;;;9.10;5.08;;;;;;;27.17;53.32;99524.31;1783967;79;21093;-88
2021/07/02 05:54:17;;;;;;;8.00;4.75;;;;;;;27.10;53.75;99519.30;1787581;79;21004;-86
2021/07/02 05:56:43;;;;;;;4.37;4.08;;;;;;;27.13;53.74;99520.03;1792213;78;20937;-87
2021/07/02 05:59:09;;;;;;;7.60;4.78;;;;;;;27.20;53.60;99526.42;1799679;78;20949;-87
2021/07/02 06:01:35;;;;;;;4.65;3.98;;;;;;;27.30;52.90;99534.34;1780256;79;21598;-89
2021/07/02 06:04:01;;;;;;;5.15;4.33;;;;;;;27.35;52.52;99531.45;1778426;79;21062;-89
2021/07/02 06:06:27;;;;;;;6.80;4.15;;;;;;;27.48;52.67;99535.71;1770995;79;21453;-87
2021/07/02 06:08:53;;;;;;;3.95;3.67;;;;;;;27.81;51.29;99537.41;1766786;80;21004;-86
2021/07/02 06:11:20;;;;;;;6.12;4.50;;;;;;;28.04;50.72;99540.80;1761830;80;20954;-86
2021/07/02 06:13:46;;;;;;;4.53;4.22;;;;;;;28.13;50.52;99538.05;1684889;84;21078;-89
2021/07/02 06:16:14;;;;;;;5.35;4.58;;;;;;;28.28;50.44;99542.21;1653261;85;20994;-87
2021/07/02 06:18:41;;;;;;;5.00;3.52;;;;;;;28.47;49.82;99538.52;1704966;83;21084;-89
2021/07/02 06:21:09;;;;;;;4.85;3.58;;;;;;;28.67;49.60;99534.83;1707211;83;21028;-85
2021/07/02 06:23:37;;;;;;;5.30;4.00;;;;;;;28.79;49.07;99530.84;1691463;83;21055;-87
2021/07/02 06:26:06;;;;;;;4.50;3.60;;;;;;;28.95;48.45;99530.27;1682430;84;21478;-90
2021/07/02 06:28:32;;;;;;;5.40;3.42;;;;;;;29.02;48.35;99529.19;1683290;84;21597;-87
2021/07/02 06:31:04;;;;;;;4.33;3.95;;;;;;;29.10;48.06;99531.06;1683736;84;21480;-93
2021/07/02 06:33:30;;;;;;;4.28;3.95;;;;;;;29.16;48.09;99520.19;1653714;83;21036;-89
2021/07/02 06:35:57;;;;;;;3.67;3.17;;;;;;;29.29;47.56;99518.30;1709182;82;21052;-89
2021/07/02 06:38:23;;;;;;;4.85;4.08;;;;;;;29.28;47.70;99516.13;1720847;82;21064;-91
2021/07/02 06:40:51;;;;;;;4.30;3.02;;;;;;;29.41;46.99;99515.64;1689979;83;21059;-83
2021/07/02 06:43:17;;;;;;;3.72;3.42;;;;;;;29.43;46.93;99520.80;1689160;82;21057;-91
2021/07/02 06:45:43;;;;;;;4.83;3.27;;;;;;;29.32;47.36;99519.02;1718834;79;20990;-82
2021/07/02 06:48:15;;;;;;;3.85;3.20;;;;;;;29.24;47.49;99515.20;1717958;81;21024;-92
2021/07/02 06:50:44;;;;;;;3.70;3.30;;;;;;;29.11;47.18;99506.05;1742067;80;21018;-87
2021/07/02 06:53:11;;;;;;;3.87;3.47;;;;;;;28.81;48.12;99512.12;1752363;80;20996;-90
2021/07/02 06:55:38;;;;;;;6.62;4.12;;;;;;;28.55;49.36;99512.23;1739619;81;21616;-86
2021/07/02 06:58:09;;;;;;;7.55;3.75;;;;;;;28.46;49.21;99515.00;1714781;82;21137;-87
2021/07/02 07:00:40;;;;;;;3.92;3.27;;;;;;;28.44;49.17;99507.64;1710831;82;21059;-86
2021/07/02 07:03:08;;;;;;;3.92;3.55;;;;;;;28.46;49.25;99508.69;1707247;83;21024;-87
2021/07/02 07:05:36;;;;;;;7.65;3.87;;;;;;;28.43;49.52;99512.91;1708137;83;21139;-86
2021/07/02 07:08:07;;;;;;;4.53;4.22;;;;;;;28.54;48.68;99518.30;1704824;83;21008;-87
2021/07/02 07:10:35;;;;;;;4.40;4.10;;;;;;;28.50;49.16;99509.64;1703723;83;21036;-90
2021/07/02 07:13:04;;;;;;;5.22;3.62;;;;;;;28.57;48.94;99508.59;1733485;81;21080;-88
2021/07/02 07:15:30;;;;;;;4.10;3.70;;;;;;;28.56;47.89;99501.52;1724212;81;21093;-83
2021/07/02 07:17:56;;;;;;;5.55;4.17;;;;;;;28.46;49.37;99503.20;1731167;81;21075;-85
2021/07/02 07:20:23;;;;;;;4.75;4.17;;;;;;;28.56;48.40;99504.27;1719833;81;20996;-85
2021/07/02 07:22:49;;;;;;;4.05;3.80;;;;;;;28.66;48.16;99508.56;1738741;80;21009;-85
2021/07/02 07:25:20;;;;;;;3.02;2.83;;;;;;;28.74;47.81;99504.97;1758416;81;21026;-82
2021/07/02 07:27:44;;;;;;;5.00;4.17;;;;;;;28.77;47.98;99504.32;1752319;80;21180;-83
2021/07/02 07:30:13;;;;;;;4.80;3.72;;;;;;;28.76;48.08;99502.70;1759369;80;21040;-84
2021/07/02 07:32:39;;;;;;;5.65;4.30;;;;;;;28.78;48.44;99505.91;1756819;81;21000;-83
2021/07/02 07:37:57;;;;;;;4.70;4.35;;;;;;;28.71;48.56;99504.28;1713375;82;21037;-83
2021/07/02 07:40:27;;;;;;;4.90;4.33;;;;;;;28.62;47.92;99507.05;1722357;82;21099;-83
2021/07/02 07:42:56;;;;;;;4.45;4.05;;;;;;;28.44;48.86;99509.02;1709294;82;21084;-80
2021/07/02 07:45:24;;;;;;;3.72;3.42;;;;;;;28.31;48.89;99502.63;1731962;79;20974;-81
2021/07/02 07:47:51;;;;;;;4.55;4.20;;;;;;;28.20;49.19;99501.92;1771594;79;21029;-85
2021/07/02 07:50:26;;;;;;;4.58;3.58;;;;;;;28.10;49.53;99507.19;1774828;79;21631;-82
2021/07/02 07:53:00;;;;;;;6.42;4.10;;;;;;;28.01;49.83;99511.33;1770063;79;21015;-80
2021/07/02 07:55:30;;;;;;;5.03;3.37;;;;;;;27.88;49.48;99511.72;1779603;79;21013;-81
2021/07/02 07:57:57;;;;;;;4.30;4.00;;;;;;;27.82;49.86;99512.20;1754296;80;20944;-80
2021/07/02 08:00:24;;;;;;;5.20;3.75;;;;;;;27.74;49.97;99506.98;1757667;80;21702;-81
2021/07/02 08:02:51;;;;;;;5.37;4.40;;;;;;;27.72;50.19;99499.66;1755266;79;21038;-81
2021/07/02 08:05:18;;;;;;;7.10;3.67;;;;;;;27.76;49.87;99495.96;1765002;80;21006;-81
2021/07/02 08:07:45;;;;;;;4.17;3.87;;;;;;;27.81;49.85;99499.08;1738762;81;21013;-83
2021/07/02 08:10:16;;;;;;;6.08;4.30;;;;;;;27.83;49.99;99500.93;1734207;81;21035;-80
2021/07/02 08:12:42;;;;;;;4.72;4.20;;;;;;;27.80;49.85;99500.77;1747421;80;21041;-81
2021/07/02 08:15:10;;;;;;;4.85;4.12;;;;;;;27.75;49.61;99507.23;1741713;81;21004;-81
2021/07/02 08:17:38;;;;;;;3.90;3.60;;;;;;;27.73;50.30;99510.86;1786347;79;21473;-81
2021/07/02 08:20:08;;;;;;;4.22;3.90;;;;;;;27.76;49.68;99507.45;1783653;79;21539;-83
2021/07/02 08:22:36;;;;;;;3.83;3.55;;;;;;;27.70;50.15;99506.02;1773073;79;21037;-81
2021/07/02 08:25:04;;;;;;;4.17;3.90;;;;;;;27.61;50.79;99512.05;1728014;81;20967;-82
2021/07/02 08:27:34;;;;;;;5.33;3.75;;;;;;;27.53;51.31;99516.41;1733210;81;20994;-83
2021/07/02 08:29:58;;;;;;;8.40;4.42;;;;;;;27.31;51.24;99520.91;1742368;81;21016;-81
2021/07/02 08:32:24;;;;;;;5.37;3.92;;;;;;;27.13;52.31;99537.81;1747927;81;20989;-81
2021/07/02 08:34:50;;;;;;;4.03;3.65;;;;;;;27.09;52.25;99538.78;1735343;81;21010;-81
2021/07/02 08:37:18;;;;;;;5.00;4.35;;;;;;;27.05;52.29;99534.51;1738012;81;21521;-81
2021/07/02 08:39:47;;;;;;;5.75;4.08;;;;;;;27.03;51.96;99541.41;1727369;81;21447;-82
2021/07/02 08:42:14;;;;;;;5.53;4.25;;;;;;;26.97;51.93;99539.38;1734266;81;21128;-82
2021/07/02 08:44:41;;;;;;;8.83;4.80;;;;;;;26.90;52.35;99544.49;1734986;81;21003;-81
2021/07/02 08:47:09;;;;;;;4.90;3.40;;;;;;;26.86;52.73;99537.52;1750780;81;21192;-79
2021/07/02 08:49:36;;;;;;;5.05;4.58;;;;;;;26.87;52.98;99539.11;1752401;80;21366;-81
2021/07/02 08:52:02;;;;;;;5.83;4.75;;;;;;;26.84;52.90;99533.47;1753549;81;20985;-81
2021/07/02 08:54:28;;;;;;;4.50;4.10;;;;;;;26.80;53.42;99533.29;1745810;81;21055;-81
2021/07/02 08:56:58;;;;;;;4.85;4.45;;;;;;;26.83;53.46;99533.23;1730652;82;21025;-80
2021/07/02 08:59:28;;;;;;;4.62;4.33;;;;;;;26.79;53.28;99531.13;1711428;82;20974;-80
2021/07/02 09:01:55;;;;;;;5.00;4.55;;;;;;;26.64;53.83;99526.66;1728262;81;20994;-79
2021/07/02 09:04:26;;;;;;;5.30;4.83;;;;;;;26.53;54.17;99526.09;1714866;82;21558;-81
2021/07/02 09:07:10;;;;;;;4.97;4.50;;;;;;;26.51;54.32;99526.40;1705778;82;21057;-80
2021/07/02 09:09:55;;;;;;;4.75;4.42;;;;;;;26.52;54.15;99525.83;1717623;82;21079;-81
2021/07/02 09:12:32;;;;;;;4.70;4.28;;;;;;;26.50;54.85;99534.34;1715237;82;21100;-81
2021/07/02 09:15:13;;;;;;;5.65;5.20;;;;;;;26.54;54.39;99527.69;1683754;84;21525;-83
2021/07/02 09:17:55;;;;;;;6.40;5.70;;;;;;;26.60;53.94;99521.81;1723437;82;21562;-83
2021/07/02 09:20:29;;;;;;;5.55;5.15;;;;;;;26.60;54.07;99523.75;1712306;82;21033;-82
2021/07/02 09:23:00;;;;;;;7.42;4.60;;;;;;;26.57;54.02;99526.50;1722402;82;21057;-83
2021/07/02 09:25:38;;;;;;;4.67;4.33;;;;;;;26.59;54.22;99533.02;1709641;83;21020;-84
2021/07/02 09:28:12;;;;;;;6.37;4.97;;;;;;;26.71;54.36;99531.08;1752931;81;21064;-81
2021/07/02 09:30:43;;;;;;;6.65;5.53;;;;;;;26.87;53.84;99535.58;1735361;81;20997;-82
2021/07/02 09:33:16;;;;;;;5.20;4.78;;;;;;;26.99;53.52;99536.59;1734644;81;21045;-81
2021/07/02 09:35:51;;;;;;;7.60;4.85;;;;;;;27.09;52.61;99542.88;1735467;81;21037;-82
2021/07/02 09:38:34;;;;;;;10.50;6.25;;;;;;;27.00;52.65;99552.42;1734151;81;21008;-84
2021/07/02 09:41:01;;;;;;;10.58;5.70;;;;;;;26.97;52.37;99554.41;1735384;81;21465;-81
2021/07/02 09:43:30;;;;;;;7.33;5.83;;;;;;;27.00;52.23;99544.22;1734247;81;21119;-83
2021/07/02 09:46:03;;;;;;;6.42;5.92;;;;;;;27.07;52.31;99532.80;1738341;81;21094;-83
2021/07/02 09:48:33;;;;;;;7.40;5.25;;;;;;;27.04;52.25;99521.14;1740071;81;21037;-81
2021/07/02 09:51:03;;;;;;;6.72;5.15;;;;;;;26.94;52.45;99532.62;1740633;81;21058;-83
2021/07/02 09:53:38;;;;;;;5.70;5.20;;;;;;;26.89;52.49;99534.13;1737885;81;21008;-83
2021/07/02 09:56:11;;;;;;;6.03;5.20;;;;;;;26.82;51.96;99536.52;1743651;81;21569;-82
2021/07/02 09:58:40;;;;;;;4.67;4.45;;;;;;;26.48;51.84;99490.70;1729476;81;21526;-83
2021/07/02 10:01:09;;;;;;;7.78;5.78;;;;;;;26.56;52.47;99530.37;1733675;81;20942;-80
2021/07/02 10:03:40;;;;;;;7.67;6.87;;;;;;;26.48;52.97;99525.65;1747860;79;20964;-79
2021/07/02 10:06:14;;;;;;;8.80;6.75;;;;;;;26.51;53.48;99531.86;1736696;81;21083;-81
2021/07/02 10:08:42;;;;;;;7.45;6.67;;;;;;;26.57;53.38;99538.00;1741080;81;21046;-79
2021/07/02 10:11:11;;;;;;;8.85;6.40;;;;;;;26.61;53.13;99535.70;1736129;81;21607;-82
2021/07/02 10:13:49;;;;;;;12.18;6.85;;;;;;;26.59;53.22;99539.31;1738445;81;20988;-82
2021/07/02 10:16:18;;;;;;;6.78;6.17;;;;;;;26.62;52.91;99539.27;1730525;81;21546;-80
2021/07/02 10:18:50;;;;;;;6.75;6.15;;;;;;;26.68;52.88;99539.93;1734429;81;21006;-83
2021/07/02 10:21:19;;;;;;;8.95;6.17;;;;;;;26.74;52.81;99532.62;1742789;81;21041;-82
2021/07/02 10:23:50;;;;;;;9.30;6.72;;;;;;;26.80;52.23;99534.66;1713347;81;21643;-82
2021/07/02 10:26:21;;;;;;;10.58;6.67;;;;;;;26.79;52.20;99531.13;1734159;81;21088;-80
2021/07/02 10:28:48;;;;;;;10.78;6.80;;;;;;;26.84;52.21;99532.09;1704836;83;21004;-81
2021/07/02 10:31:17;;;;;;;6.20;5.62;;;;;;;26.89;51.51;99531.96;1723112;81;21092;-81
2021/07/02 10:33:50;;;;;;;6.90;5.20;;;;;;;26.92;51.44;99532.70;1740105;81;20977;-81
2021/07/02 10:36:19;;;;;;;5.50;5.00;;;;;;;26.96;51.28;99533.11;1733619;81;21071;-84
2021/07/02 10:38:52;;;;;;;6.05;4.78;;;;;;;27.00;51.15;99536.81;1733800;81;21037;-82
2021/07/02 10:41:26;;;;;;;4.83;4.37;;;;;;;27.13;50.93;99527.45;1746053;81;21030;-84
2021/07/02 10:44:13;;;;;;;5.22;4.83;;;;;;;27.22;50.07;99536.47;1732980;81;21037;-84
2021/07/02 10:46:50;;;;;;;5.65;5.10;;;;;;;27.20;49.41;99537.36;1735281;81;21092;-81
2021/07/02 10:49:18;;;;;;;6.47;5.75;;;;;;;27.11;50.23;99535.16;1728145;81;21043;-81
2021/07/02 10:51:52;;;;;;;6.17;5.10;;;;;;;27.06;50.03;99538.04;1747756;81;21065;-82
2021/07/02 10:54:25;;;;;;;5.55;5.15;;;;;;;27.01;49.90;99545.81;1738441;81;21511;-81
2021/07/02 10:57:06;;;;;;;5.60;5.17;;;;;;;26.99;50.11;99539.32;1720147;81;21051;-80
2021/07/02 10:59:46;;;;;;;6.55;5.10;;;;;;;27.05;50.84;99540.52;1735537;81;21009;-82
2021/07/02 11:02:18;;;;;;;6.33;4.40;;;;;;;27.10;50.29;99543.11;1708826;81;21349;-83
2021/07/02 11:04:51;;;;;;;4.10;3.80;;;;;;;27.15;49.00;99545.70;1733168;81;21014;-81
2021/07/02 11:07:26;;;;;;;4.75;4.40;;;;;;;27.19;48.72;99539.84;1744101;81;21022;-81
2021/07/02 11:09:59;;;;;;;6.35;3.33;;;;;;;27.23;48.70;99533.17;1726249;81;21055;-80
2021/07/02 11:12:49;;;;;;;3.95;3.65;;;;;;;27.27;48.76;99540.44;1719751;82;21023;-81
2021/07/02 11:15:19;;;;;;;4.37;3.65;;;;;;;27.38;48.86;99533.53;1724631;82;21087;-82
2021/07/02 11:17:50;;;;;;;4.45;4.05;;;;;;;27.38;47.96;99531.37;1719768;82;21478;-80
2021/07/02 11:20:24;;;;;;;4.33;3.98;;;;;;;27.34;48.20;99528.46;1720457;82;21599;-82
2021/07/02 11:22:57;;;;;;;5.47;3.42;;;;;;;27.35;48.38;99525.16;1709918;81;20976;-81
2021/07/02 11:25:36;;;;;;;3.67;3.58;;;;;;;27.42;47.92;99517.84;1734053;80;21055;-83
2021/07/02 11:28:09;;;;;;;4.12;3.92;;;;;;;27.44;48.23;99519.13;1737491;80;21013;-83
2021/07/02 11:30:39;;;;;;;5.75;4.12;;;;;;;27.46;47.42;99517.45;1735314;80;21068;-82
2021/07/02 11:33:13;;;;;;;4.20;3.65;;;;;;;27.41;47.70;99515.69;1736117;80;21015;-84
2021/07/02 11:35:43;;;;;;;3.92;3.58;;;;;;;27.42;47.99;99511.80;1740548;80;21671;-82
2021/07/02 11:38:20;;;;;;;4.30;3.95;;;;;;;27.43;47.67;99504.42;1752734;80;21523;-83
2021/07/02 11:40:51;;;;;;;4.55;4.22;;;;;;;27.43;47.48;99501.69;1743687;80;21597;-82
2021/07/02 11:43:24;;;;;;;4.92;3.55;;;;;;;27.41;47.68;99499.81;1735591;80;21638;-83